Time;durP1;ratioP1;P1;durP2;ratioP2;P2;SDS_P1;SDS_P2;PMS_P1;PMS_P2;Temp;Humidity;BMP_temperature;BMP_pressure;BME280_temperature;BME280_humidity;BME280_pressure;Samples;Min_cycle;Max_cycle;Signal;HPM_P1;HPM_P2
2021/06/21 00:02:23;;;;;;;9.38;1.05;;;22.10;69.30;;;;;;6246242;28;20038;-77
2021/06/21 00:05:24;;;;;;;8.68;1.30;;;22.10;69.20;;;;;;6209075;28;20037;-77
2021/06/21 00:08:25;;;;;;;7.43;1.33;;;22.10;69.40;;;;;;6217745;28;20362;-77
2021/06/21 00:11:26;;;;;;;7.22;1.48;;;22.10;69.50;;;;;;6274085;28;20033;-76
2021/06/21 00:14:29;;;;;;;7.88;1.63;;;22.10;69.60;;;;;;6258975;28;20036;-77
2021/06/21 00:17:30;;;;;;;3.45;1.10;;;22.10;69.90;;;;;;6259306;28;20040;-77
2021/06/21 00:20:31;;;;;;;8.55;1.42;;;22.20;70.30;;;;;;6257752;28;20032;-76
2021/06/21 00:23:32;;;;;;;9.82;1.35;;;22.00;70.40;;;;;;6256757;28;20029;-76
2021/06/21 00:26:35;;;;;;;5.68;1.63;;;22.00;70.40;;;;;;6237701;28;20043;-77
2021/06/21 00:29:36;;;;;;;5.15;1.13;;;22.00;70.20;;;;;;6258806;28;20449;-76
2021/06/21 00:32:39;;;;;;;6.60;1.10;;;21.90;70.20;;;;;;6250329;28;20089;-77
2021/06/21 00:35:40;;;;;;;5.05;0.95;;;21.80;70.50;;;;;;6239607;28;20390;-77
2021/06/21 00:38:41;;;;;;;6.80;1.63;;;21.80;70.90;;;;;;6256478;28;20048;-77
2021/06/21 00:41:42;;;;;;;9.55;1.40;;;21.70;70.90;;;;;;6273459;28;20029;-77
2021/06/21 00:44:43;;;;;;;6.35;1.05;;;21.80;71.00;;;;;;6255267;28;20402;-77
2021/06/21 00:47:44;;;;;;;6.85;1.60;;;21.80;71.10;;;;;;6256169;28;20052;-76
2021/06/21 00:50:45;;;;;;;6.18;1.35;;;21.80;71.00;;;;;;6256205;28;20342;-77
2021/06/21 00:53:48;;;;;;;9.48;1.55;;;21.80;71.00;;;;;;6255947;28;20036;-76
2021/06/21 00:56:49;;;;;;;11.70;1.83;;;21.80;70.90;;;;;;6254379;28;20033;-76
2021/06/21 00:59:50;;;;;;;6.50;1.70;;;21.90;70.80;;;;;;6255697;28;20024;-77
2021/06/21 01:02:52;;;;;;;6.50;1.42;;;21.90;70.90;;;;;;6233960;28;20041;-76
2021/06/21 01:05:53;;;;;;;4.35;1.33;;;22.00;71.10;;;;;;6255777;28;20043;-77
2021/06/21 01:08:54;;;;;;;9.43;2.25;;;22.10;71.00;;;;;;6255654;28;20033;-77
2021/06/21 01:12:08;;;;;;;12.77;1.83;;;22.10;70.80;;;;;;6272077;28;20041;-76
2021/06/21 01:15:10;;;;;;;9.52;1.63;;;22.10;70.60;;;;;;6253930;28;20457;-76
2021/06/21 01:18:15;;;;;;;6.60;1.80;;;22.10;70.40;;;;;;6271210;28;20041;-77
2021/06/21 01:21:41;;;;;;;9.18;1.80;;;22.10;70.30;;;;;;6240764;28;20042;-76
2021/06/21 01:25:00;;;;;;;4.55;1.33;;;22.10;70.20;;;;;;6227515;28;20108;-77
2021/06/21 01:28:13;;;;;;;5.55;1.48;;;22.10;70.10;;;;;;6230890;28;20025;-77
2021/06/21 01:31:20;;;;;;;4.07;1.25;;;22.20;70.10;;;;;;6225029;28;20064;-76
2021/06/21 01:34:27;;;;;;;2.60;1.13;;;22.20;70.10;;;;;;6226033;28;20044;-76
2021/06/21 01:37:29;;;;;;;8.02;1.88;;;22.20;70.00;;;;;;6237584;28;20147;-77
2021/06/21 01:40:37;;;;;;;2.15;1.05;;;22.20;69.80;;;;;;6255009;28;20497;-76
2021/06/21 01:43:43;;;;;;;9.20;1.40;;;22.20;69.70;;;;;;6222363;28;20025;-76
2021/06/21 01:46:49;;;;;;;6.07;1.33;;;22.30;69.60;;;;;;6255322;28;20021;-76
2021/06/21 01:49:51;;;;;;;8.90;1.70;;;22.30;69.40;;;;;;6255053;28;20091;-76
2021/06/21 01:53:14;;;;;;;8.95;1.65;;;22.30;69.40;;;;;;6255064;28;20037;-76
2021/06/21 01:56:20;;;;;;;9.90;1.73;;;22.30;69.70;;;;;;6253767;28;20036;-77
2021/06/21 01:59:25;;;;;;;7.38;1.52;;;22.40;69.70;;;;;;6255315;28;20452;-77
2021/06/21 02:02:26;;;;;;;6.25;1.40;;;22.40;69.60;;;;;;6247712;28;20037;-77
2021/06/21 02:05:30;;;;;;;12.02;2.00;;;22.40;69.60;;;;;;6242312;28;20052;-77
2021/06/21 02:08:33;;;;;;;6.13;1.85;;;22.30;69.50;;;;;;6255043;28;20017;-77
2021/06/21 02:11:34;;;;;;;10.63;1.63;;;22.40;69.50;;;;;;6253807;28;20055;-77
2021/06/21 02:14:36;;;;;;;4.57;1.35;;;22.40;69.40;;;;;;6235942;28;20357;-76
2021/06/21 02:17:40;;;;;;;3.42;1.55;;;22.40;69.30;;;;;;6248064;28;20052;-77
2021/06/21 02:20:41;;;;;;;5.18;1.48;;;22.40;69.30;;;;;;6230409;28;20048;-77
2021/06/21 02:23:43;;;;;;;9.13;1.17;;;22.40;69.20;;;;;;6269399;28;20029;-77
2021/06/21 02:26:46;;;;;;;6.25;1.30;;;22.40;69.20;;;;;;6272363;28;20116;-76
2021/06/21 02:29:48;;;;;;;5.72;1.40;;;22.40;68.90;;;;;;6253029;28;20481;-77
2021/06/21 02:32:50;;;;;;;8.43;1.63;;;22.40;68.80;;;;;;6254182;28;20406;-77
2021/06/21 02:35:51;;;;;;;5.65;1.20;;;22.40;68.60;;;;;;6218751;28;20546;-76
2021/06/21 02:38:54;;;;;;;4.70;1.52;;;22.40;68.60;;;;;;6245802;28;20493;-77
2021/06/21 02:41:55;;;;;;;5.45;1.33;;;22.50;68.70;;;;;;6248584;28;20052;-77
2021/06/21 02:44:56;;;;;;;3.42;1.17;;;22.50;68.60;;;;;;6230843;28;20378;-77
2021/06/21 02:47:57;;;;;;;13.00;1.27;;;22.50;68.50;;;;;;6263745;28;20037;-77
2021/06/21 02:51:01;;;;;;;5.20;1.15;;;22.50;68.30;;;;;;6254202;28;20426;-77
2021/06/21 02:54:26;;;;;;;6.28;1.45;;;22.50;68.20;;;;;;6237280;28;20104;-77
2021/06/21 02:57:30;;;;;;;4.57;1.77;;;22.50;68.30;;;;;;6271766;28;20413;-76
2021/06/21 03:00:31;;;;;;;10.75;1.67;;;22.50;68.30;;;;;;6272498;28;20415;-76
2021/06/21 03:03:37;;;;;;;8.75;1.25;;;22.50;68.50;;;;;;6238226;28;20442;-76
2021/06/21 03:06:39;;;;;;;7.05;1.67;;;22.50;68.50;;;;;;6228749;28;20334;-77
2021/06/21 03:09:43;;;;;;;8.65;1.33;;;22.60;68.60;;;;;;6230373;28;20026;-77
2021/06/21 03:12:45;;;;;;;2.60;1.05;;;22.60;68.40;;;;;;6230180;28;20410;-77
2021/06/21 03:15:50;;;;;;;2.33;0.93;;;22.60;68.20;;;;;;6230053;28;20124;-77
2021/06/21 03:18:52;;;;;;;2.97;1.35;;;22.60;67.90;;;;;;6251537;28;20033;-77
2021/06/21 03:21:55;;;;;;;3.65;1.50;;;22.60;68.10;;;;;;6235006;28;20033;-77
2021/06/21 03:24:56;;;;;;;6.90;0.95;;;22.50;68.90;;;;;;6238254;28;20025;-77
2021/06/21 03:28:05;;;;;;;6.85;1.65;;;22.60;68.30;;;;;;6229278;28;20397;-77
2021/06/21 03:31:08;;;;;;;2.05;0.90;;;22.60;68.40;;;;;;6245639;28;20037;-77
2021/06/21 03:34:09;;;;;;;2.92;1.45;;;22.60;68.30;;;;;;6230307;28;20092;-77
2021/06/21 03:37:11;;;;;;;5.65;1.27;;;22.60;68.30;;;;;;6238379;28;20029;-78
2021/06/21 03:40:12;;;;;;;5.10;1.05;;;22.60;68.40;;;;;;6253860;28;20040;-78
2021/06/21 03:43:15;;;;;;;7.90;1.58;;;22.60;68.30;;;;;;6252809;28;20044;-77
2021/06/21 03:46:16;;;;;;;1.20;0.82;;;22.60;68.10;;;;;;6254124;28;20060;-77
2021/06/21 03:49:17;;;;;;;6.55;1.38;;;22.70;68.20;;;;;;6252413;28;20021;-75
2021/06/21 03:52:19;;;;;;;4.90;1.30;;;22.70;68.10;;;;;;6270850;28;20060;-76
2021/06/21 03:55:20;;;;;;;4.32;1.48;;;22.60;68.10;;;;;;6252715;28;20036;-76
2021/06/21 03:58:22;;;;;;;4.85;1.27;;;22.60;68.10;;;;;;6253404;28;20067;-76
2021/06/21 04:01:23;;;;;;;7.07;1.55;;;22.70;68.10;;;;;;6268655;28;20095;-76
2021/06/21 04:04:25;;;;;;;2.70;1.23;;;22.70;68.20;;;;;;6199869;28;20112;-76
2021/06/21 04:07:26;;;;;;;9.80;1.45;;;22.70;68.10;;;;;;6215267;28;20087;-76
2021/06/21 04:10:27;;;;;;;3.00;1.35;;;22.70;68.10;;;;;;6219404;28;20034;-76
2021/06/21 04:13:29;;;;;;;3.80;1.20;;;22.70;67.90;;;;;;6247728;28;20377;-76
2021/06/21 04:16:30;;;;;;;2.75;1.20;;;22.70;67.90;;;;;;6269597;28;20119;-76
2021/06/21 04:19:31;;;;;;;4.40;1.23;;;22.70;67.90;;;;;;6231082;28;20509;-77
2021/06/21 04:22:31;;;;;;;4.82;1.33;;;22.70;68.00;;;;;;6268823;28;20021;-77
2021/06/21 04:25:33;;;;;;;2.22;1.17;;;22.70;67.80;;;;;;6252716;28;20465;-76
2021/06/21 04:28:36;;;;;;;6.97;1.40;;;22.70;67.80;;;;;;6267899;28;20419;-76
2021/06/21 04:31:37;;;;;;;3.90;1.35;;;22.70;67.70;;;;;;6253064;28;20053;-77
2021/06/21 04:34:38;;;;;;;6.47;1.70;;;22.80;67.70;;;;;;6237758;28;20033;-76
2021/06/21 04:37:39;;;;;;;5.10;1.35;;;22.80;67.70;;;;;;6252949;28;20123;-77
2021/06/21 04:40:40;;;;;;;5.03;1.33;;;22.90;67.60;;;;;;6256258;28;20025;-77
2021/06/21 04:43:41;;;;;;;4.70;2.30;;;22.90;67.40;;;;;;6255059;28;20060;-77
2021/06/21 04:46:42;;;;;;;14.93;1.90;;;23.00;67.40;;;;;;6257837;28;20159;-76
2021/06/21 04:49:43;;;;;;;7.05;1.92;;;23.00;67.20;;;;;;6228195;28;20106;-77
2021/06/21 04:52:46;;;;;;;10.10;2.05;;;23.10;67.00;;;;;;6230184;28;20120;-76
2021/06/21 04:55:58;;;;;;;10.55;2.33;;;23.10;66.90;;;;;;6252951;28;20060;-76
2021/06/21 04:58:59;;;;;;;9.25;2.42;;;23.20;66.70;;;;;;6237134;28;20098;-76
2021/06/21 05:02:00;;;;;;;13.68;2.40;;;23.20;66.60;;;;;;6250921;28;20115;-77
2021/06/21 05:05:03;;;;;;;7.40;2.40;;;23.30;66.40;;;;;;6229449;28;20111;-77
2021/06/21 05:08:05;;;;;;;8.77;2.28;;;23.30;66.20;;;;;;6245375;28;20083;-76
2021/06/21 05:11:07;;;;;;;26.25;2.97;;;23.30;66.10;;;;;;6229138;28;20125;-76
2021/06/21 05:14:08;;;;;;;23.08;3.05;;;23.40;66.10;;;;;;6231377;28;20021;-79
2021/06/21 05:17:10;;;;;;;13.25;2.67;;;23.40;66.00;;;;;;6233673;28;20030;-78
2021/06/21 05:20:12;;;;;;;10.02;2.47;;;23.50;65.80;;;;;;6227101;28;20060;-78
2021/06/21 05:23:13;;;;;;;24.40;2.53;;;23.60;65.70;;;;;;6244197;28;20017;-79
2021/06/21 05:26:14;;;;;;;5.35;2.92;;;23.60;65.50;;;;;;6275592;28;20040;-79
2021/06/21 05:29:15;;;;;;;10.48;2.55;;;23.60;65.30;;;;;;6256739;28;20029;-79
2021/06/21 05:32:19;;;;;;;11.93;2.30;;;23.60;65.10;;;;;;6268468;28;20332;-78
2021/06/21 05:35:21;;;;;;;5.82;1.77;;;23.60;65.00;;;;;;6207245;28;20552;-78
2021/06/21 05:38:22;;;;;;;7.40;1.58;;;23.60;64.90;;;;;;6235961;28;20025;-78
2021/06/21 05:41:23;;;;;;;6.60;1.90;;;23.60;64.70;;;;;;6233520;28;20120;-78
2021/06/21 05:44:24;;;;;;;10.77;2.20;;;23.60;64.50;;;;;;6233199;28;20113;-78
2021/06/21 05:47:25;;;;;;;8.93;2.05;;;23.60;64.40;;;;;;6241242;28;20434;-78
2021/06/21 05:50:26;;;;;;;25.38;10.65;;;23.60;64.20;;;;;;6258046;28;20037;-78
2021/06/21 05:53:29;;;;;;;5.47;1.98;;;23.60;64.00;;;;;;6257291;28;20142;-78
2021/06/21 05:56:30;;;;;;;10.60;2.33;;;23.60;64.10;;;;;;6274674;28;20049;-78
2021/06/21 05:59:31;;;;;;;3.33;1.40;;;23.60;64.10;;;;;;6257095;28;20422;-76
2021/06/21 06:02:32;;;;;;;5.03;1.83;;;23.60;63.50;;;;;;6252227;28;20087;-77
2021/06/21 06:05:33;;;;;;;7.40;1.70;;;23.60;63.20;;;;;;6231881;28;20149;-77
2021/06/21 06:08:34;;;;;;;13.85;2.13;;;23.60;63.20;;;;;;6229790;28;20171;-77
2021/06/21 06:11:35;;;;;;;5.75;1.98;;;23.60;63.30;;;;;;6233697;28;20333;-77
2021/06/21 06:14:37;;;;;;;5.35;1.50;;;23.60;63.20;;;;;;6232379;28;20029;-75
2021/06/21 06:17:39;;;;;;;9.07;2.08;;;23.60;63.00;;;;;;6231984;28;20049;-76
2021/06/21 06:20:40;;;;;;;4.88;1.88;;;23.60;63.00;;;;;;6237654;28;20044;-76
2021/06/21 06:23:41;;;;;;;12.68;1.90;;;23.70;62.80;;;;;;6240072;28;20033;-76
2021/06/21 06:26:43;;;;;;;3.72;1.58;;;23.70;62.70;;;;;;6231715;28;20041;-76
2021/06/21 06:29:44;;;;;;;15.20;2.28;;;23.90;62.80;;;;;;6237600;28;20412;-76
2021/06/21 06:32:46;;;;;;;7.25;2.35;;;23.90;62.30;;;;;;6244164;28;20034;-76
2021/06/21 06:35:47;;;;;;;8.88;1.85;;;24.00;62.40;;;;;;6205364;28;20040;-76
2021/06/21 06:38:48;;;;;;;6.97;1.20;;;24.10;62.30;;;;;;6242701;28;20036;-76
2021/06/21 06:41:49;;;;;;;4.95;1.77;;;24.20;62.10;;;;;;6255693;28;20040;-76
2021/06/21 06:44:50;;;;;;;6.38;1.40;;;24.30;62.20;;;;;;6254450;28;20045;-76
2021/06/21 06:47:51;;;;;;;5.07;1.83;;;24.40;61.20;;;;;;6273877;28;20505;-76
2021/06/21 06:50:52;;;;;;;9.05;1.70;;;24.50;60.10;;;;;;6246220;28;20422;-76
2021/06/21 06:54:02;;;;;;;13.27;2.10;;;24.50;60.40;;;;;;6247567;28;20094;-76
2021/06/21 06:57:04;;;;;;;13.52;1.75;;;24.60;60.40;;;;;;6221333;28;20049;-76
2021/06/21 07:00:07;;;;;;;13.05;1.77;;;24.70;60.10;;;;;;6249883;28;20450;-76
2021/06/21 07:03:10;;;;;;;5.22;2.28;;;24.80;59.80;;;;;;6260805;28;20029;-76
2021/06/21 07:06:12;;;;;;;14.35;2.10;;;24.90;59.80;;;;;;6271097;28;20124;-76
2021/06/21 07:09:13;;;;;;;14.63;1.77;;;25.10;59.50;;;;;;6254556;28;20033;-76
2021/06/21 07:12:14;;;;;;;3.53;1.35;;;25.20;59.20;;;;;;6236250;28;20034;-76
2021/06/21 07:15:16;;;;;;;6.55;1.30;;;25.30;58.70;;;;;;6238494;28;20512;-76
2021/06/21 07:18:17;;;;;;;40.80;2.42;;;25.30;58.20;;;;;;6256307;28;20041;-76
2021/06/21 07:21:18;;;;;;;12.82;1.80;;;25.40;58.40;;;;;;6254031;28;20373;-76
2021/06/21 07:24:20;;;;;;;7.97;1.73;;;25.50;58.20;;;;;;6239871;28;20047;-76
2021/06/21 07:27:21;;;;;;;10.18;1.60;;;25.60;58.00;;;;;;6272288;28;20051;-76
2021/06/21 07:30:23;;;;;;;11.98;1.58;;;25.70;57.70;;;;;;6255841;28;20094;-76
2021/06/21 07:33:24;;;;;;;5.03;1.00;;;25.90;57.60;;;;;;6229279;28;20046;-75
2021/06/21 07:36:26;;;;;;;4.97;1.23;;;26.00;57.00;;;;;;6222870;28;20099;-75
2021/06/21 07:39:28;;;;;;;9.73;1.67;;;26.10;56.60;;;;;;6206657;28;20038;-76
2021/06/21 07:42:29;;;;;;;5.30;1.20;;;26.10;56.30;;;;;;6205720;28;20029;-76
2021/06/21 07:45:31;;;;;;;5.13;1.67;;;26.20;56.00;;;;;;6207073;28;20041;-76
2021/06/21 07:48:37;;;;;;;21.80;8.30;;;26.30;55.70;;;;;;6227598;28;20029;-76
2021/06/21 07:51:38;;;;;;;9.63;3.67;;;26.30;55.60;;;;;;6246544;28;20017;-76
2021/06/21 07:54:39;;;;;;;7.63;1.77;;;26.40;55.50;;;;;;6222535;28;20045;-77
2021/06/21 07:57:40;;;;;;;5.43;1.75;;;26.50;55.20;;;;;;6231554;28;20414;-77
2021/06/21 08:00:41;;;;;;;10.50;1.63;;;26.60;55.30;;;;;;6245894;28;20041;-76
2021/06/21 08:03:43;;;;;;;9.93;1.23;;;26.70;55.20;;;;;;6245976;28;20025;-77
2021/06/21 08:06:46;;;;;;;6.07;1.60;;;26.90;55.00;;;;;;6214406;28;20060;-76
2021/06/21 08:09:48;;;;;;;6.63;1.50;;;27.00;54.50;;;;;;6230307;28;20033;-77
2021/06/21 08:12:53;;;;;;;4.57;1.10;;;27.20;54.40;;;;;;6247570;28;20033;-77
2021/06/21 08:15:53;;;;;;;3.90;1.20;;;27.20;53.60;;;;;;6230205;28;20037;-76
2021/06/21 08:18:55;;;;;;;3.72;1.20;;;27.20;53.50;;;;;;6211096;28;20089;-76
2021/06/21 08:21:56;;;;;;;10.38;1.85;;;27.30;53.20;;;;;;6206284;28;20124;-79
2021/06/21 08:24:58;;;;;;;4.60;1.55;;;27.30;52.70;;;;;;6238652;28;20042;-78
2021/06/21 08:27:59;;;;;;;8.88;1.75;;;27.40;52.80;;;;;;6231164;28;20067;-77
2021/06/21 08:31:01;;;;;;;1.63;0.98;;;27.50;52.60;;;;;;6222112;28;20362;-77
2021/06/21 08:34:05;;;;;;;10.05;1.42;;;27.60;51.80;;;;;;6232768;28;20051;-76
2021/06/21 08:37:07;;;;;;;7.10;0.93;;;27.60;52.00;;;;;;6238792;28;20029;-75
2021/06/21 08:40:09;;;;;;;8.20;1.48;;;27.70;51.70;;;;;;6214430;28;20028;-76
2021/06/21 08:43:11;;;;;;;3.30;1.17;;;27.80;51.80;;;;;;6229886;28;20034;-76
2021/06/21 08:46:14;;;;;;;4.13;1.02;;;27.90;51.50;;;;;;6227706;28;20350;-76
2021/06/21 08:49:17;;;;;;;4.13;1.20;;;27.90;50.80;;;;;;6233030;28;20116;-76
2021/06/21 08:52:19;;;;;;;15.10;4.53;;;28.00;51.10;;;;;;6229297;28;20059;-77
2021/06/21 08:55:20;;;;;;;7.50;3.67;;;28.10;51.10;;;;;;6246619;28;20344;-76
2021/06/21 08:58:22;;;;;;;8.85;1.75;;;28.20;51.00;;;;;;6229833;28;20037;-77
2021/06/21 09:01:23;;;;;;;7.85;1.35;;;28.30;50.50;;;;;;6219241;28;20025;-76
2021/06/21 09:04:25;;;;;;;3.85;1.23;;;28.40;50.50;;;;;;6224927;28;20401;-75
2021/06/21 09:07:27;;;;;;;8.63;1.42;;;28.50;50.10;;;;;;6236846;28;20100;-75
2021/06/21 09:10:31;;;;;;;6.57;1.20;;;28.60;50.00;;;;;;6231632;28;20029;-76
2021/06/21 09:13:33;;;;;;;6.22;1.42;;;28.60;49.70;;;;;;6248452;28;20037;-76
2021/06/21 09:16:43;;;;;;;9.40;1.88;;;28.70;49.60;;;;;;6246345;28;20037;-76
2021/06/21 09:19:55;;;;;;;7.05;1.90;;;28.80;49.20;;;;;;6233788;28;20032;-77
2021/06/21 09:23:01;;;;;;;6.18;1.60;;;28.80;49.00;;;;;;6238932;28;20029;-77
2021/06/21 09:26:17;;;;;;;3.58;1.38;;;28.90;47.60;;;;;;6247734;28;20037;-77
2021/06/21 09:29:35;;;;;;;8.55;3.50;;;28.90;47.70;;;;;;6234047;28;20053;-77
2021/06/21 09:32:46;;;;;;;5.93;1.20;;;28.90;47.80;;;;;;6223882;28;20439;-76
2021/06/21 09:35:47;;;;;;;6.32;1.70;;;28.90;48.10;;;;;;6228601;28;20031;-77
2021/06/21 09:39:17;;;;;;;8.30;1.80;;;29.00;48.30;;;;;;6227831;28;20113;-77
2021/06/21 09:42:23;;;;;;;15.82;3.42;;;29.10;48.30;;;;;;6206982;28;20053;-77
2021/06/21 09:45:24;;;;;;;14.35;5.32;;;29.20;47.80;;;;;;6224404;28;20060;-77
2021/06/21 09:48:37;;;;;;;9.93;4.35;;;29.30;47.30;;;;;;6224942;28;20045;-77
2021/06/21 09:51:38;;;;;;;11.93;2.42;;;29.30;47.30;;;;;;6221166;28;20061;-76
2021/06/21 09:54:39;;;;;;;11.43;2.20;;;29.40;47.20;;;;;;6187958;28;20064;-76
2021/06/21 09:57:42;;;;;;;14.45;2.95;;;29.50;46.80;;;;;;6225727;28;20419;-76
2021/06/21 10:01:06;;;;;;;11.52;2.88;;;29.60;46.40;;;;;;6246139;28;20029;-77
2021/06/21 10:04:24;;;;;;;18.15;6.45;;;29.70;46.50;;;;;;6241182;28;20025;-76
2021/06/21 10:07:36;;;;;;;12.82;2.38;;;29.70;46.10;;;;;;6227438;28;20040;-77
2021/06/21 10:10:38;;;;;;;12.68;2.67;;;29.70;46.50;;;;;;6245101;28;20041;-76
2021/06/21 10:13:39;;;;;;;15.95;3.65;;;29.80;46.10;;;;;;6226593;28;20052;-76
2021/06/21 10:16:42;;;;;;;11.23;2.30;;;29.80;46.00;;;;;;6222684;28;20049;-75
2021/06/21 10:19:43;;;;;;;20.52;6.00;;;29.90;46.10;;;;;;6224891;28;20076;-77
2021/06/21 10:22:44;;;;;;;11.93;3.45;;;30.00;45.80;;;;;;6243603;28;20335;-76
2021/06/21 10:25:45;;;;;;;9.73;2.67;;;30.10;45.60;;;;;;6211122;28;20029;-76
2021/06/21 10:28:54;;;;;;;13.85;2.30;;;30.20;45.20;;;;;;6228243;28;20052;-76
2021/06/21 10:31:56;;;;;;;14.85;2.45;;;30.30;45.30;;;;;;6226148;28;20118;-77
2021/06/21 10:34:58;;;;;;;5.05;2.03;;;30.30;45.00;;;;;;6208546;28;20404;-76
2021/06/21 10:38:05;;;;;;;13.35;2.35;;;30.40;45.00;;;;;;6227261;28;20466;-76
2021/06/21 10:41:11;;;;;;;11.98;2.40;;;30.60;45.20;;;;;;6218639;28;20401;-76
2021/06/21 10:44:38;;;;;;;8.60;2.58;;;30.80;44.70;;;;;;6243589;28;20458;-76
2021/06/21 10:47:43;;;;;;;14.45;2.05;;;31.10;44.20;;;;;;6229654;28;20467;-76
2021/06/21 10:50:52;;;;;;;13.02;2.90;;;31.40;43.80;;;;;;6188853;28;20030;-77
2021/06/21 10:53:53;;;;;;;11.02;2.25;;;31.60;42.80;;;;;;6247416;28;20514;-77
2021/06/21 10:56:59;;;;;;;10.93;1.85;;;31.90;41.30;;;;;;6231904;28;20403;-77
2021/06/21 11:00:29;;;;;;;8.73;2.10;;;32.20;41.00;;;;;;6232945;28;20052;-78
2021/06/21 11:03:34;;;;;;;21.77;2.47;;;32.50;40.10;;;;;;6193246;28;20439;-77
2021/06/21 11:06:37;;;;;;;6.05;1.83;;;32.90;39.90;;;;;;6221824;28;20037;-76
2021/06/21 11:09:44;;;;;;;10.00;1.80;;;33.40;38.40;;;;;;6223220;28;20038;-78
2021/06/21 11:12:45;;;;;;;6.32;2.28;;;34.30;35.80;;;;;;6221994;28;20041;-77
2021/06/21 11:16:25;;;;;;;6.28;2.08;;;35.00;34.80;;;;;;6254308;28;20036;-77
2021/06/21 11:19:28;;;;;;;9.50;1.92;;;36.00;33.10;;;;;;6253025;28;20342;-77
2021/06/21 11:22:49;;;;;;;16.25;1.63;;;37.10;30.70;;;;;;6254848;28;20040;-77
2021/06/21 11:25:50;;;;;;;9.65;1.75;;;37.80;29.70;;;;;;6253814;28;20058;-77
2021/06/21 11:28:52;;;;;;;14.75;2.08;;;38.50;29.30;;;;;;6254606;28;20040;-77
2021/06/21 11:31:59;;;;;;;24.80;3.78;;;39.00;27.80;;;;;;6250150;28;20358;-77
2021/06/21 11:35:01;;;;;;;6.30;2.08;;;39.10;27.80;;;;;;6205677;28;20112;-76
2021/06/21 11:38:19;;;;;;;6.70;1.95;;;39.60;26.90;;;;;;6246588;28;20318;-77
2021/06/21 11:41:26;;;;;;;7.80;1.50;;;40.10;26.40;;;;;;6254332;28;20021;-77
2021/06/21 11:44:37;;;;;;;5.43;1.50;;;39.80;26.30;;;;;;6237132;28;20426;-77
2021/06/21 11:47:38;;;;;;;4.47;1.08;;;40.10;26.40;;;;;;6225611;28;20447;-78
2021/06/21 11:50:39;;;;;;;7.90;1.13;;;40.50;24.20;;;;;;6246064;28;20124;-78
2021/06/21 11:53:48;;;;;;;3.55;1.05;;;40.70;21.70;;;;;;6248452;28;20331;-78
2021/06/21 11:56:54;;;;;;;8.68;1.33;;;40.90;22.00;;;;;;6244008;28;20024;-79
2021/06/21 11:59:55;;;;;;;4.07;0.95;;;40.90;21.20;;;;;;6253847;28;20043;-78
2021/06/21 12:03:10;;;;;;;6.82;1.60;;;40.90;20.80;;;;;;6238549;28;20037;-78
2021/06/21 12:06:20;;;;;;;1.98;1.10;;;40.90;20.70;;;;;;6229297;28;20102;-78
2021/06/21 12:09:21;;;;;;;4.82;1.33;;;40.70;20.00;;;;;;6244621;28;20039;-78
2021/06/21 12:12:24;;;;;;;4.88;1.35;;;40.60;20.30;;;;;;6246230;28;20051;-78
2021/06/21 12:15:29;;;;;;;3.83;1.10;;;40.90;20.40;;;;;;6242707;28;20038;-79
2021/06/21 12:18:30;;;;;;;2.15;1.17;;;41.10;19.90;;;;;;6231898;28;20033;-78
2021/06/21 12:21:38;;;;;;;2.50;0.77;;;41.30;19.60;;;;;;6227215;28;20049;-78
2021/06/21 12:24:39;;;;;;;4.93;1.00;;;41.50;19.30;;;;;;6228217;28;20048;-78
2021/06/21 12:27:40;;;;;;;5.15;1.63;;;41.50;19.20;;;;;;6241877;28;20024;-79
2021/06/21 12:30:43;;;;;;;4.90;1.20;;;41.40;18.80;;;;;;6253523;28;20047;-79
2021/06/21 12:33:44;;;;;;;6.38;1.15;;;41.30;19.00;;;;;;6220192;28;20037;-78
2021/06/21 12:36:45;;;;;;;9.65;1.23;;;41.30;19.50;;;;;;6210059;28;20111;-79
2021/06/21 12:39:49;;;;;;;4.30;0.73;;;41.30;19.30;;;;;;6202469;28;20033;-78
2021/06/21 12:42:50;;;;;;;2.30;0.93;;;41.00;19.10;;;;;;6221860;28;20379;-78
2021/06/21 12:45:51;;;;;;;4.38;1.05;;;41.30;19.00;;;;;;6253138;28;20045;-78
2021/06/21 12:48:53;;;;;;;3.63;0.90;;;41.40;18.70;;;;;;6252106;28;20052;-79
2021/06/21 12:51:54;;;;;;;2.67;0.90;;;41.40;19.10;;;;;;6250929;28;20044;-78
2021/06/21 12:55:06;;;;;;;3.10;1.00;;;41.60;18.60;;;;;;6253190;28;20083;-79
2021/06/21 12:58:09;;;;;;;7.20;1.25;;;41.60;18.50;;;;;;6241618;28;20033;-78
2021/06/21 13:01:37;;;;;;;4.40;0.90;;;41.70;18.20;;;;;;6259764;28;20116;-79
2021/06/21 13:04:38;;;;;;;2.80;0.88;;;41.80;18.30;;;;;;6211154;28;20423;-79
2021/06/21 13:07:40;;;;;;;5.18;1.10;;;42.00;18.40;;;;;;6245295;28;20061;-79
2021/06/21 13:10:43;;;;;;;4.10;1.00;;;42.20;17.90;;;;;;6229011;28;20033;-79
2021/06/21 13:13:51;;;;;;;3.22;0.88;;;42.70;17.50;;;;;;6222769;28;20307;-79
2021/06/21 13:17:09;;;;;;;5.15;1.42;;;43.10;17.20;;;;;;6231918;28;20307;-78
2021/06/21 13:20:14;;;;;;;4.63;1.17;;;43.30;16.90;;;;;;6229432;28;20116;-79
2021/06/21 13:23:15;;;;;;;7.75;1.30;;;43.60;16.50;;;;;;6234134;28;20029;-79
2021/06/21 13:26:17;;;;;;;11.73;2.00;;;44.10;16.10;;;;;;6247890;28;20060;-78
2021/06/21 13:29:29;;;;;;;4.40;1.00;;;44.70;15.90;;;;;;6260895;28;20029;-79
2021/06/21 13:32:37;;;;;;;5.03;1.20;;;44.80;15.70;;;;;;6248986;28;20481;-78
2021/06/21 13:35:46;;;;;;;3.97;0.93;;;45.00;15.80;;;;;;6249921;28;20052;-79
2021/06/21 13:38:50;;;;;;;3.75;0.88;;;45.60;15.10;;;;;;6233958;28;20110;-78
2021/06/21 13:42:02;;;;;;;1.60;0.82;;;46.00;14.80;;;;;;6233100;28;20073;-78
2021/06/21 13:45:12;;;;;;;5.65;1.00;;;46.40;14.70;;;;;;6261112;28;20034;-78
2021/06/21 13:48:19;;;;;;;3.35;0.90;;;46.60;14.30;;;;;;6247437;28;20032;-78
2021/06/21 13:51:24;;;;;;;2.60;1.00;;;47.10;14.20;;;;;;6258686;28;20095;-78
2021/06/21 13:54:28;;;;;;;2.28;0.90;;;46.90;14.30;;;;;;6253872;28;20075;-79
2021/06/21 13:57:47;;;;;;;5.15;1.00;;;46.50;14.10;;;;;;6274945;28;20115;-78
2021/06/21 14:00:49;;;;;;;2.10;0.82;;;46.30;14.10;;;;;;6259027;28;20029;-79
2021/06/21 14:03:53;;;;;;;1.63;0.95;;;46.70;14.10;;;;;;6241120;28;20338;-79
2021/06/21 14:06:55;;;;;;;3.00;1.00;;;47.00;13.50;;;;;;6237119;28;20060;-80
2021/06/21 14:09:57;;;;;;;5.05;1.15;;;47.00;13.60;;;;;;6247971;28;20025;-79
2021/06/21 14:12:58;;;;;;;3.60;0.70;;;47.00;13.60;;;;;;6226519;28;20183;-79
2021/06/21 14:15:59;;;;;;;3.97;1.27;;;47.20;13.60;;;;;;6242210;28;20052;-80
2021/06/21 14:19:04;;;;;;;4.88;0.98;;;47.50;13.50;;;;;;6246235;28;20105;-80
2021/06/21 14:22:05;;;;;;;5.95;1.30;;;48.10;13.50;;;;;;6228837;28;20394;-80
2021/06/21 14:25:07;;;;;;;2.13;0.90;;;48.60;13.20;;;;;;6241585;28;20041;-77
2021/06/21 14:28:09;;;;;;;4.22;0.82;;;49.10;13.10;;;;;;6258100;28;20033;-78
2021/06/21 14:31:11;;;;;;;3.65;0.93;;;49.80;12.60;;;;;;6256107;28;20357;-79
2021/06/21 14:34:12;;;;;;;4.03;0.88;;;50.30;12.50;;;;;;6235667;28;20035;-79
2021/06/21 14:37:13;;;;;;;3.75;0.82;;;50.60;12.30;;;;;;6232802;28;20060;-79
2021/06/21 14:40:14;;;;;;;3.78;0.88;;;50.60;12.00;;;;;;6231410;28;20099;-79
2021/06/21 14:43:20;;;;;;;2.08;0.80;;;49.80;11.90;;;;;;6256670;28;20116;-80
2021/06/21 14:46:21;;;;;;;1.70;0.50;;;49.10;12.50;;;;;;6239971;28;20037;-80
2021/06/21 14:49:22;;;;;;;2.30;0.73;;;49.00;13.10;;;;;;6258324;28;20060;-79
2021/06/21 14:52:23;;;;;;;4.28;0.90;;;49.10;12.60;;;;;;6248827;28;20051;-80
2021/06/21 14:55:24;;;;;;;2.33;0.82;;;49.40;12.60;;;;;;6255233;28;20041;-79
2021/06/21 14:58:28;;;;;;;1.67;0.82;;;49.30;12.60;;;;;;6256725;28;20060;-78
2021/06/21 15:01:29;;;;;;;1.88;1.17;;;47.70;13.10;;;;;;6255867;28;20316;-80
2021/06/21 15:04:30;;;;;;;1.65;0.68;;;45.80;14.20;;;;;;6249430;28;20113;-80
2021/06/21 15:07:31;;;;;;;2.67;0.70;;;45.10;14.60;;;;;;6250148;28;20488;-80
2021/06/21 15:10:32;;;;;;;2.58;0.95;;;44.00;14.90;;;;;;6216134;28;20029;-80
2021/06/21 15:13:34;;;;;;;4.88;0.77;;;42.90;15.60;;;;;;6269116;28;20037;-80
2021/06/21 15:16:35;;;;;;;1.73;0.75;;;43.10;15.30;;;;;;6258398;28;20029;-78
2021/06/21 15:19:40;;;;;;;4.25;0.90;;;43.70;15.20;;;;;;6258565;28;20033;-79
2021/06/21 15:22:42;;;;;;;1.35;0.90;;;44.50;14.80;;;;;;6273110;28;20119;-80
2021/06/21 15:25:44;;;;;;;2.78;0.70;;;45.10;14.30;;;;;;6241366;28;20140;-79
2021/06/21 15:28:45;;;;;;;2.00;0.63;;;44.90;14.20;;;;;;6248298;28;20029;-79
2021/06/21 15:31:46;;;;;;;1.80;0.65;;;44.50;14.40;;;;;;6230250;28;20408;-79
2021/06/21 15:34:47;;;;;;;1.73;0.95;;;44.10;14.60;;;;;;6245279;28;20104;-79
2021/06/21 15:37:49;;;;;;;4.53;0.98;;;43.40;15.10;;;;;;6239945;28;20025;-79
2021/06/21 15:40:50;;;;;;;5.45;1.02;;;42.50;15.50;;;;;;6257065;28;20503;-78
2021/06/21 15:43:51;;;;;;;4.57;1.10;;;42.30;15.90;;;;;;6255667;28;20082;-80
2021/06/21 15:46:53;;;;;;;2.22;0.75;;;42.70;15.60;;;;;;6257450;28;20037;-79
2021/06/21 15:49:53;;;;;;;2.13;0.90;;;43.40;15.30;;;;;;6216724;28;20105;-79
2021/06/21 15:53:00;;;;;;;2.00;0.90;;;43.80;14.90;;;;;;6249140;28;20090;-78
2021/06/21 15:56:02;;;;;;;3.65;0.95;;;42.80;15.40;;;;;;6256970;28;20037;-79